sensor_id;sensor_type;location;lat;lon;timestamp;P1;P2;P0
64229;PMS5003;50547;49.498;0.092;2023-07-02T00:00:31;20;17;
64229;PMS5003;50547;49.498;0.092;2023-07-02T00:03:01;22;19;
64229;PMS5003;50547;49.498;0.092;2023-07-02T00:05:30;18;16;
64229;PMS5003;50547;49.498;0.092;2023-07-02T00:07:59;20;17;
64229;PMS5003;50547;49.498;0.092;2023-07-02T00:10:28;19;17;
64229;PMS5003;50547;49.498;0.092;2023-07-02T00:12:57;20;17;
64229;PMS5003;50547;49.498;0.092;2023-07-02T00:15:26;20;17;
64229;PMS5003;50547;49.498;0.092;2023-07-02T00:17:55;21;18;
64229;PMS5003;50547;49.498;0.092;2023-07-02T00:20:25;22;19;
64229;PMS5003;50547;49.498;0.092;2023-07-02T00:22:54;22;19;
64229;PMS5003;50547;49.498;0.092;2023-07-02T00:25:23;22;19;
64229;PMS5003;50547;49.498;0.092;2023-07-02T00:27:52;20;17;
64229;PMS5003;50547;49.498;0.092;2023-07-02T00:30:21;21;18;
64229;PMS5003;50547;49.498;0.092;2023-07-02T00:32:50;20;17;
64229;PMS5003;50547;49.498;0.092;2023-07-02T00:35:20;21;18;
64229;PMS5003;50547;49.498;0.092;2023-07-02T00:37:49;20;17;
64229;PMS5003;50547;49.498;0.092;2023-07-02T00:40:18;21;18;
64229;PMS5003;50547;49.498;0.092;2023-07-02T00:42:47;22;19;
64229;PMS5003;50547;49.498;0.092;2023-07-02T00:45:16;23;20;
64229;PMS5003;50547;49.498;0.092;2023-07-02T00:47:45;21;18;
64229;PMS5003;50547;49.498;0.092;2023-07-02T00:50:15;20;17;
64229;PMS5003;50547;49.498;0.092;2023-07-02T00:52:44;23;20;
64229;PMS5003;50547;49.498;0.092;2023-07-02T00:55:14;22;19;
64229;PMS5003;50547;49.498;0.092;2023-07-02T00:57:43;22;19;
64229;PMS5003;50547;49.498;0.092;2023-07-02T01:00:12;23;20;
64229;PMS5003;50547;49.498;0.092;2023-07-02T01:02:42;21;18;
64229;PMS5003;50547;49.498;0.092;2023-07-02T01:05:13;23;20;
64229;PMS5003;50547;49.498;0.092;2023-07-02T01:07:43;23;20;
64229;PMS5003;50547;49.498;0.092;2023-07-02T01:10:12;23;20;
64229;PMS5003;50547;49.498;0.092;2023-07-02T01:12:41;23;20;
64229;PMS5003;50547;49.498;0.092;2023-07-02T01:15:11;22;19;
64229;PMS5003;50547;49.498;0.092;2023-07-02T01:17:41;23;20;
64229;PMS5003;50547;49.498;0.092;2023-07-02T01:20:11;23;20;
64229;PMS5003;50547;49.498;0.092;2023-07-02T01:22:41;22;19;
64229;PMS5003;50547;49.498;0.092;2023-07-02T01:25:10;22;19;
64229;PMS5003;50547;49.498;0.092;2023-07-02T01:27:40;20;17;
64229;PMS5003;50547;49.498;0.092;2023-07-02T01:30:09;23;20;
64229;PMS5003;50547;49.498;0.092;2023-07-02T01:32:38;22;19;
64229;PMS5003;50547;49.498;0.092;2023-07-02T01:35:07;22;19;
64229;PMS5003;50547;49.498;0.092;2023-07-02T01:37:37;22;19;
64229;PMS5003;50547;49.498;0.092;2023-07-02T01:40:07;22;19;
64229;PMS5003;50547;49.498;0.092;2023-07-02T01:42:36;23;20;
64229;PMS5003;50547;49.498;0.092;2023-07-02T01:45:06;23;20;
64229;PMS5003;50547;49.498;0.092;2023-07-02T01:47:36;22;19;
64229;PMS5003;50547;49.498;0.092;2023-07-02T01:50:05;23;20;
64229;PMS5003;50547;49.498;0.092;2023-07-02T01:52:35;23;20;
64229;PMS5003;50547;49.498;0.092;2023-07-02T01:55:05;22;19;
64229;PMS5003;50547;49.498;0.092;2023-07-02T01:57:34;23;20;
64229;PMS5003;50547;49.498;0.092;2023-07-02T02:00:04;22;19;
64229;PMS5003;50547;49.498;0.092;2023-07-02T02:02:34;22;19;
64229;PMS5003;50547;49.498;0.092;2023-07-02T02:05:04;23;20;
64229;PMS5003;50547;49.498;0.092;2023-07-02T02:07:34;23;20;
64229;PMS5003;50547;49.498;0.092;2023-07-02T02:10:03;23;20;
64229;PMS5003;50547;49.498;0.092;2023-07-02T02:12:34;23;20;
64229;PMS5003;50547;49.498;0.092;2023-07-02T02:15:03;22;19;
64229;PMS5003;50547;49.498;0.092;2023-07-02T02:17:33;23;20;
64229;PMS5003;50547;49.498;0.092;2023-07-02T02:20:03;23;20;
64229;PMS5003;50547;49.498;0.092;2023-07-02T02:22:33;22;19;
64229;PMS5003;50547;49.498;0.092;2023-07-02T02:25:02;22;19;
64229;PMS5003;50547;49.498;0.092;2023-07-02T02:27:32;23;20;
64229;PMS5003;50547;49.498;0.092;2023-07-02T02:30:01;23;20;
64229;PMS5003;50547;49.498;0.092;2023-07-02T02:32:31;23;20;
64229;PMS5003;50547;49.498;0.092;2023-07-02T02:35:00;23;20;
64229;PMS5003;50547;49.498;0.092;2023-07-02T02:37:29;23;20;
64229;PMS5003;50547;49.498;0.092;2023-07-02T02:39:58;23;20;
64229;PMS5003;50547;49.498;0.092;2023-07-02T02:42:27;23;20;
64229;PMS5003;50547;49.498;0.092;2023-07-02T02:44:56;24;21;
64229;PMS5003;50547;49.498;0.092;2023-07-02T02:47:25;23;20;
64229;PMS5003;50547;49.498;0.092;2023-07-02T02:49:54;24;21;
64229;PMS5003;50547;49.498;0.092;2023-07-02T02:52:24;23;20;
64229;PMS5003;50547;49.498;0.092;2023-07-02T02:54:53;25;22;
64229;PMS5003;50547;49.498;0.092;2023-07-02T02:57:22;23;20;
64229;PMS5003;50547;49.498;0.092;2023-07-02T02:59:51;24;21;
64229;PMS5003;50547;49.498;0.092;2023-07-02T03:02:20;23;20;
64229;PMS5003;50547;49.498;0.092;2023-07-02T03:04:49;23;20;
64229;PMS5003;50547;49.498;0.092;2023-07-02T03:07:19;23;20;
64229;PMS5003;50547;49.498;0.092;2023-07-02T03:09:48;26;23;
64229;PMS5003;50547;49.498;0.092;2023-07-02T03:12:17;24;21;
64229;PMS5003;50547;49.498;0.092;2023-07-02T03:14:46;23;20;
64229;PMS5003;50547;49.498;0.092;2023-07-02T03:17:15;24;21;
64229;PMS5003;50547;49.498;0.092;2023-07-02T03:19:44;25;22;
64229;PMS5003;50547;49.498;0.092;2023-07-02T03:22:13;26;23;
64229;PMS5003;50547;49.498;0.092;2023-07-02T03:24:43;25;22;
64229;PMS5003;50547;49.498;0.092;2023-07-02T03:27:12;25;22;
64229;PMS5003;50547;49.498;0.092;2023-07-02T03:29:41;27;23;
64229;PMS5003;50547;49.498;0.092;2023-07-02T03:32:10;26;23;
64229;PMS5003;50547;49.498;0.092;2023-07-02T03:34:39;24;21;
64229;PMS5003;50547;49.498;0.092;2023-07-02T03:37:08;27;23;
64229;PMS5003;50547;49.498;0.092;2023-07-02T03:39:37;25;22;
64229;PMS5003;50547;49.498;0.092;2023-07-02T03:42:06;23;20;
64229;PMS5003;50547;49.498;0.092;2023-07-02T03:44:36;25;22;
64229;PMS5003;50547;49.498;0.092;2023-07-02T03:47:05;25;22;
64229;PMS5003;50547;49.498;0.092;2023-07-02T03:49:34;23;20;
64229;PMS5003;50547;49.498;0.092;2023-07-02T03:52:04;25;22;
64229;PMS5003;50547;49.498;0.092;2023-07-02T03:54:34;25;22;
64229;PMS5003;50547;49.498;0.092;2023-07-02T03:57:03;26;23;
64229;PMS5003;50547;49.498;0.092;2023-07-02T03:59:33;26;23;
64229;PMS5003;50547;49.498;0.092;2023-07-02T04:02:03;24;21;
64229;PMS5003;50547;49.498;0.092;2023-07-02T04:04:33;25;22;
64229;PMS5003;50547;49.498;0.092;2023-07-02T04:07:02;27;23;
64229;PMS5003;50547;49.498;0.092;2023-07-02T04:09:31;24;21;
64229;PMS5003;50547;49.498;0.092;2023-07-02T04:12:00;23;20;
64229;PMS5003;50547;49.498;0.092;2023-07-02T04:14:29;23;20;
64229;PMS5003;50547;49.498;0.092;2023-07-02T04:16:59;26;23;
64229;PMS5003;50547;49.498;0.092;2023-07-02T04:19:28;25;22;
64229;PMS5003;50547;49.498;0.092;2023-07-02T04:21:58;25;22;
64229;PMS5003;50547;49.498;0.092;2023-07-02T04:24:27;26;23;
64229;PMS5003;50547;49.498;0.092;2023-07-02T04:26:56;27;23;
64229;PMS5003;50547;49.498;0.092;2023-07-02T04:29:25;25;22;
64229;PMS5003;50547;49.498;0.092;2023-07-02T04:31:54;25;22;
64229;PMS5003;50547;49.498;0.092;2023-07-02T04:34:23;25;22;
64229;PMS5003;50547;49.498;0.092;2023-07-02T04:36:52;24;21;
64229;PMS5003;50547;49.498;0.092;2023-07-02T04:39:21;24;21;
64229;PMS5003;50547;49.498;0.092;2023-07-02T04:41:51;27;23;
64229;PMS5003;50547;49.498;0.092;2023-07-02T04:44:20;25;22;
64229;PMS5003;50547;49.498;0.092;2023-07-02T04:46:49;25;22;
64229;PMS5003;50547;49.498;0.092;2023-07-02T04:49:19;24;21;
64229;PMS5003;50547;49.498;0.092;2023-07-02T04:51:48;26;23;
64229;PMS5003;50547;49.498;0.092;2023-07-02T04:54:17;25;22;
64229;PMS5003;50547;49.498;0.092;2023-07-02T04:56:46;24;21;
64229;PMS5003;50547;49.498;0.092;2023-07-02T04:59:15;25;22;
64229;PMS5003;50547;49.498;0.092;2023-07-02T05:01:44;23;20;
64229;PMS5003;50547;49.498;0.092;2023-07-02T05:04:14;23;20;
64229;PMS5003;50547;49.498;0.092;2023-07-02T05:06:43;24;21;
64229;PMS5003;50547;49.498;0.092;2023-07-02T05:09:12;24;21;
64229;PMS5003;50547;49.498;0.092;2023-07-02T05:11:41;24;21;
64229;PMS5003;50547;49.498;0.092;2023-07-02T05:14:10;26;23;
64229;PMS5003;50547;49.498;0.092;2023-07-02T05:16:39;25;22;
64229;PMS5003;50547;49.498;0.092;2023-07-02T05:19:08;25;22;
64229;PMS5003;50547;49.498;0.092;2023-07-02T05:21:37;24;21;
64229;PMS5003;50547;49.498;0.092;2023-07-02T05:24:07;24;21;
64229;PMS5003;50547;49.498;0.092;2023-07-02T05:26:36;23;20;
64229;PMS5003;50547;49.498;0.092;2023-07-02T05:29:06;23;20;
64229;PMS5003;50547;49.498;0.092;2023-07-02T05:31:36;22;19;
64229;PMS5003;50547;49.498;0.092;2023-07-02T05:34:07;22;19;
64229;PMS5003;50547;49.498;0.092;2023-07-02T05:36:36;22;19;
64229;PMS5003;50547;49.498;0.092;2023-07-02T05:39:06;23;20;
64229;PMS5003;50547;49.498;0.092;2023-07-02T05:41:35;23;20;
64229;PMS5003;50547;49.498;0.092;2023-07-02T05:44:04;22;19;
64229;PMS5003;50547;49.498;0.092;2023-07-02T05:46:34;22;19;
64229;PMS5003;50547;49.498;0.092;2023-07-02T05:49:03;22;19;
64229;PMS5003;50547;49.498;0.092;2023-07-02T05:51:32;22;19;
64229;PMS5003;50547;49.498;0.092;2023-07-02T05:54:01;21;18;
64229;PMS5003;50547;49.498;0.092;2023-07-02T05:56:30;22;19;
64229;PMS5003;50547;49.498;0.092;2023-07-02T05:58:59;22;19;
64229;PMS5003;50547;49.498;0.092;2023-07-02T06:01:28;22;19;
64229;PMS5003;50547;49.498;0.092;2023-07-02T06:03:57;22;19;
64229;PMS5003;50547;49.498;0.092;2023-07-02T06:06:27;23;20;
64229;PMS5003;50547;49.498;0.092;2023-07-02T06:08:56;20;17;
64229;PMS5003;50547;49.498;0.092;2023-07-02T06:11:25;22;19;
64229;PMS5003;50547;49.498;0.092;2023-07-02T06:13:54;22;19;
64229;PMS5003;50547;49.498;0.092;2023-07-02T06:16:23;22;19;
64229;PMS5003;50547;49.498;0.092;2023-07-02T06:18:52;19;17;
64229;PMS5003;50547;49.498;0.092;2023-07-02T06:21:21;18;16;
64229;PMS5003;50547;49.498;0.092;2023-07-02T06:23:50;19;17;
64229;PMS5003;50547;49.498;0.092;2023-07-02T06:26:19;20;17;
64229;PMS5003;50547;49.498;0.092;2023-07-02T06:28:48;20;17;
64229;PMS5003;50547;49.498;0.092;2023-07-02T06:31:18;19;17;
64229;PMS5003;50547;49.498;0.092;2023-07-02T06:33:47;20;17;
64229;PMS5003;50547;49.498;0.092;2023-07-02T06:36:16;20;17;
64229;PMS5003;50547;49.498;0.092;2023-07-02T06:38:45;20;17;
64229;PMS5003;50547;49.498;0.092;2023-07-02T06:41:14;20;17;
64229;PMS5003;50547;49.498;0.092;2023-07-02T06:43:43;20;17;
64229;PMS5003;50547;49.498;0.092;2023-07-02T06:46:13;20;17;
64229;PMS5003;50547;49.498;0.092;2023-07-02T06:48:42;18;16;
64229;PMS5003;50547;49.498;0.092;2023-07-02T06:51:11;19;17;
64229;PMS5003;50547;49.498;0.092;2023-07-02T06:53:40;18;16;
64229;PMS5003;50547;49.498;0.092;2023-07-02T06:56:10;19;17;
64229;PMS5003;50547;49.498;0.092;2023-07-02T06:58:39;17;15;
64229;PMS5003;50547;49.498;0.092;2023-07-02T07:01:10;18;16;
64229;PMS5003;50547;49.498;0.092;2023-07-02T07:03:39;18;16;
64229;PMS5003;50547;49.498;0.092;2023-07-02T07:06:09;14;14;
64229;PMS5003;50547;49.498;0.092;2023-07-02T07:08:40;18;16;
64229;PMS5003;50547;49.498;0.092;2023-07-02T07:11:09;14;14;
64229;PMS5003;50547;49.498;0.092;2023-07-02T07:13:38;17;15;
64229;PMS5003;50547;49.498;0.092;2023-07-02T07:16:07;14;14;
64229;PMS5003;50547;49.498;0.092;2023-07-02T07:18:36;13;13;
64229;PMS5003;50547;49.498;0.092;2023-07-02T07:21:05;13;13;
64229;PMS5003;50547;49.498;0.092;2023-07-02T07:23:34;13;13;
64229;PMS5003;50547;49.498;0.092;2023-07-02T07:26:03;13;13;
64229;PMS5003;50547;49.498;0.092;2023-07-02T07:28:32;13;13;
64229;PMS5003;50547;49.498;0.092;2023-07-02T07:31:02;13;13;
64229;PMS5003;50547;49.498;0.092;2023-07-02T07:33:31;13;13;
64229;PMS5003;50547;49.498;0.092;2023-07-02T07:36:00;13;13;
64229;PMS5003;50547;49.498;0.092;2023-07-02T07:38:29;13;13;
64229;PMS5003;50547;49.498;0.092;2023-07-02T07:40:58;14;14;
64229;PMS5003;50547;49.498;0.092;2023-07-02T07:43:27;13;13;
64229;PMS5003;50547;49.498;0.092;2023-07-02T07:45:57;13;13;
64229;PMS5003;50547;49.498;0.092;2023-07-02T07:48:26;11;11;
64229;PMS5003;50547;49.498;0.092;2023-07-02T07:50:55;13;13;
64229;PMS5003;50547;49.498;0.092;2023-07-02T07:53:24;13;13;
64229;PMS5003;50547;49.498;0.092;2023-07-02T07:55:54;11;11;
64229;PMS5003;50547;49.498;0.092;2023-07-02T07:58:23;11;11;
64229;PMS5003;50547;49.498;0.092;2023-07-02T08:00:52;11;11;
64229;PMS5003;50547;49.498;0.092;2023-07-02T08:03:21;11;11;
64229;PMS5003;50547;49.498;0.092;2023-07-02T08:05:51;11;11;
64229;PMS5003;50547;49.498;0.092;2023-07-02T08:08:20;11;11;
64229;PMS5003;50547;49.498;0.092;2023-07-02T08:10:49;11;11;
64229;PMS5003;50547;49.498;0.092;2023-07-02T08:13:18;12;12;
64229;PMS5003;50547;49.498;0.092;2023-07-02T08:15:47;11;11;
64229;PMS5003;50547;49.498;0.092;2023-07-02T08:18:16;11;11;
64229;PMS5003;50547;49.498;0.092;2023-07-02T08:20:46;10;10;
64229;PMS5003;50547;49.498;0.092;2023-07-02T08:23:15;11;11;
64229;PMS5003;50547;49.498;0.092;2023-07-02T08:25:44;10;10;
64229;PMS5003;50547;49.498;0.092;2023-07-02T08:28:13;11;11;
64229;PMS5003;50547;49.498;0.092;2023-07-02T08:30:42;11;11;
64229;PMS5003;50547;49.498;0.092;2023-07-02T08:33:11;10;10;
64229;PMS5003;50547;49.498;0.092;2023-07-02T08:35:40;10;10;
64229;PMS5003;50547;49.498;0.092;2023-07-02T08:38:10;10;10;
64229;PMS5003;50547;49.498;0.092;2023-07-02T08:40:39;11;11;
64229;PMS5003;50547;49.498;0.092;2023-07-02T08:43:08;10;10;
64229;PMS5003;50547;49.498;0.092;2023-07-02T08:45:37;11;11;
64229;PMS5003;50547;49.498;0.092;2023-07-02T08:48:09;10;10;
64229;PMS5003;50547;49.498;0.092;2023-07-02T08:50:39;10;10;
64229;PMS5003;50547;49.498;0.092;2023-07-02T08:53:08;10;10;
64229;PMS5003;50547;49.498;0.092;2023-07-02T08:55:38;10;10;
64229;PMS5003;50547;49.498;0.092;2023-07-02T08:58:07;11;11;
64229;PMS5003;50547;49.498;0.092;2023-07-02T09:00:36;11;11;
64229;PMS5003;50547;49.498;0.092;2023-07-02T09:03:11;13;13;
64229;PMS5003;50547;49.498;0.092;2023-07-02T09:05:49;11;11;
64229;PMS5003;50547;49.498;0.092;2023-07-02T09:08:23;11;11;
64229;PMS5003;50547;49.498;0.092;2023-07-02T09:10:52;13;13;
64229;PMS5003;50547;49.498;0.092;2023-07-02T09:13:22;13;13;
64229;PMS5003;50547;49.498;0.092;2023-07-02T09:15:51;13;13;
64229;PMS5003;50547;49.498;0.092;2023-07-02T09:18:21;11;11;
64229;PMS5003;50547;49.498;0.092;2023-07-02T09:20:51;11;11;
64229;PMS5003;50547;49.498;0.092;2023-07-02T09:23:22;11;11;
64229;PMS5003;50547;49.498;0.092;2023-07-02T09:25:51;11;11;
64229;PMS5003;50547;49.498;0.092;2023-07-02T09:28:21;10;10;
64229;PMS5003;50547;49.498;0.092;2023-07-02T09:30:52;10;10;
64229;PMS5003;50547;49.498;0.092;2023-07-02T09:33:23;10;10;
64229;PMS5003;50547;49.498;0.092;2023-07-02T09:35:52;10;10;
64229;PMS5003;50547;49.498;0.092;2023-07-02T09:38:22;10;10;
64229;PMS5003;50547;49.498;0.092;2023-07-02T09:40:52;10;10;
64229;PMS5003;50547;49.498;0.092;2023-07-02T09:43:22;10;10;
64229;PMS5003;50547;49.498;0.092;2023-07-02T09:45:53;10;10;
64229;PMS5003;50547;49.498;0.092;2023-07-02T09:48:24;10;10;
64229;PMS5003;50547;49.498;0.092;2023-07-02T09:50:53;10;10;
64229;PMS5003;50547;49.498;0.092;2023-07-02T09:53:23;10;10;
64229;PMS5003;50547;49.498;0.092;2023-07-02T09:55:54;9;9;
64229;PMS5003;50547;49.498;0.092;2023-07-02T09:58:24;10;10;
64229;PMS5003;50547;49.498;0.092;2023-07-02T10:00:53;10;10;
64229;PMS5003;50547;49.498;0.092;2023-07-02T10:03:30;10;10;
64229;PMS5003;50547;49.498;0.092;2023-07-02T10:06:03;10;10;
64229;PMS5003;50547;49.498;0.092;2023-07-02T10:08:33;10;10;
64229;PMS5003;50547;49.498;0.092;2023-07-02T10:11:06;10;10;
64229;PMS5003;50547;49.498;0.092;2023-07-02T10:13:37;9;9;
64229;PMS5003;50547;49.498;0.092;2023-07-02T10:16:06;8;8;
64229;PMS5003;50547;49.498;0.092;2023-07-02T10:18:35;8;8;
64229;PMS5003;50547;49.498;0.092;2023-07-02T10:21:20;11;11;
64229;PMS5003;50547;49.498;0.092;2023-07-02T10:23:49;8;8;
64229;PMS5003;50547;49.498;0.092;2023-07-02T10:26:19;9;9;
64229;PMS5003;50547;49.498;0.092;2023-07-02T10:28:56;9;9;
64229;PMS5003;50547;49.498;0.092;2023-07-02T10:31:26;7;7;
64229;PMS5003;50547;49.498;0.092;2023-07-02T10:33:55;8;8;
64229;PMS5003;50547;49.498;0.092;2023-07-02T10:36:24;10;10;
64229;PMS5003;50547;49.498;0.092;2023-07-02T10:39:00;9;9;
64229;PMS5003;50547;49.498;0.092;2023-07-02T10:41:30;10;10;
64229;PMS5003;50547;49.498;0.092;2023-07-02T10:44:08;8;8;
64229;PMS5003;50547;49.498;0.092;2023-07-02T10:46:45;8;8;
64229;PMS5003;50547;49.498;0.092;2023-07-02T10:49:16;8;8;
64229;PMS5003;50547;49.498;0.092;2023-07-02T10:51:56;10;10;
64229;PMS5003;50547;49.498;0.092;2023-07-02T10:54:26;8;8;
64229;PMS5003;50547;49.498;0.092;2023-07-02T10:56:56;8;8;
64229;PMS5003;50547;49.498;0.092;2023-07-02T10:59:26;7;7;
64229;PMS5003;50547;49.498;0.092;2023-07-02T11:01:56;8;8;
64229;PMS5003;50547;49.498;0.092;2023-07-02T11:04:25;9;9;
64229;PMS5003;50547;49.498;0.092;2023-07-02T11:06:54;7;7;
64229;PMS5003;50547;49.498;0.092;2023-07-02T11:09:24;8;8;
64229;PMS5003;50547;49.498;0.092;2023-07-02T11:11:53;9;9;
64229;PMS5003;50547;49.498;0.092;2023-07-02T11:14:28;10;10;
64229;PMS5003;50547;49.498;0.092;2023-07-02T11:16:59;7;7;
64229;PMS5003;50547;49.498;0.092;2023-07-02T11:19:26;9;9;
64229;PMS5003;50547;49.498;0.092;2023-07-02T11:21:56;8;8;
64229;PMS5003;50547;49.498;0.092;2023-07-02T11:24:27;7;7;
64229;PMS5003;50547;49.498;0.092;2023-07-02T11:26:57;8;8;
64229;PMS5003;50547;49.498;0.092;2023-07-02T11:29:28;8;8;
64229;PMS5003;50547;49.498;0.092;2023-07-02T11:32:05;7;7;
64229;PMS5003;50547;49.498;0.092;2023-07-02T11:34:35;7;7;
64229;PMS5003;50547;49.498;0.092;2023-07-02T11:37:05;7;7;
64229;PMS5003;50547;49.498;0.092;2023-07-02T11:39:34;8;8;
64229;PMS5003;50547;49.498;0.092;2023-07-02T11:42:04;8;8;
64229;PMS5003;50547;49.498;0.092;2023-07-02T11:44:33;7;7;
64229;PMS5003;50547;49.498;0.092;2023-07-02T11:47:03;7;7;
64229;PMS5003;50547;49.498;0.092;2023-07-02T11:49:32;7;7;
64229;PMS5003;50547;49.498;0.092;2023-07-02T11:52:01;8;8;
64229;PMS5003;50547;49.498;0.092;2023-07-02T11:54:31;9;9;
64229;PMS5003;50547;49.498;0.092;2023-07-02T11:57:00;7;7;
64229;PMS5003;50547;49.498;0.092;2023-07-02T11:59:26;8;8;
64229;PMS5003;50547;49.498;0.092;2023-07-02T12:01:55;8;8;
64229;PMS5003;50547;49.498;0.092;2023-07-02T12:04:24;7;7;
64229;PMS5003;50547;49.498;0.092;2023-07-02T12:06:50;7;7;
64229;PMS5003;50547;49.498;0.092;2023-07-02T12:09:19;8;8;
64229;PMS5003;50547;49.498;0.092;2023-07-02T12:11:48;8;8;
64229;PMS5003;50547;49.498;0.092;2023-07-02T12:14:14;7;7;
64229;PMS5003;50547;49.498;0.092;2023-07-02T12:16:43;7;7;
64229;PMS5003;50547;49.498;0.092;2023-07-02T12:19:12;7;7;
64229;PMS5003;50547;49.498;0.092;2023-07-02T12:21:42;7;7;
64229;PMS5003;50547;49.498;0.092;2023-07-02T12:24:11;7;7;
64229;PMS5003;50547;49.498;0.092;2023-07-02T12:26:42;7;7;
64229;PMS5003;50547;49.498;0.092;2023-07-02T12:29:11;7;7;
64229;PMS5003;50547;49.498;0.092;2023-07-02T12:31:40;8;8;
64229;PMS5003;50547;49.498;0.092;2023-07-02T12:34:10;7;7;
64229;PMS5003;50547;49.498;0.092;2023-07-02T12:36:40;7;7;
64229;PMS5003;50547;49.498;0.092;2023-07-02T12:39:06;7;7;
64229;PMS5003;50547;49.498;0.092;2023-07-02T12:41:35;8;8;
64229;PMS5003;50547;49.498;0.092;2023-07-02T12:44:04;8;8;
64229;PMS5003;50547;49.498;0.092;2023-07-02T12:46:30;7;7;
64229;PMS5003;50547;49.498;0.092;2023-07-02T12:48:59;7;7;
64229;PMS5003;50547;49.498;0.092;2023-07-02T12:51:28;7;7;
64229;PMS5003;50547;49.498;0.092;2023-07-02T12:53:54;7;7;
64229;PMS5003;50547;49.498;0.092;2023-07-02T12:56:23;7;7;
64229;PMS5003;50547;49.498;0.092;2023-07-02T12:58:52;7;7;
64229;PMS5003;50547;49.498;0.092;2023-07-02T13:01:18;7;7;
64229;PMS5003;50547;49.498;0.092;2023-07-02T13:03:47;8;8;
64229;PMS5003;50547;49.498;0.092;2023-07-02T13:06:16;7;7;
64229;PMS5003;50547;49.498;0.092;2023-07-02T13:08:46;7;7;
64229;PMS5003;50547;49.498;0.092;2023-07-02T13:11:15;7;7;
64229;PMS5003;50547;49.498;0.092;2023-07-02T13:13:44;7;7;
64229;PMS5003;50547;49.498;0.092;2023-07-02T13:16:14;7;7;
64229;PMS5003;50547;49.498;0.092;2023-07-02T13:18:43;8;8;
64229;PMS5003;50547;49.498;0.092;2023-07-02T13:21:12;7;7;
64229;PMS5003;50547;49.498;0.092;2023-07-02T13:23:41;7;7;
64229;PMS5003;50547;49.498;0.092;2023-07-02T13:26:10;7;7;
64229;PMS5003;50547;49.498;0.092;2023-07-02T13:28:39;8;8;
64229;PMS5003;50547;49.498;0.092;2023-07-02T13:31:09;7;7;
64229;PMS5003;50547;49.498;0.092;2023-07-02T13:33:38;8;8;
64229;PMS5003;50547;49.498;0.092;2023-07-02T13:36:07;7;7;
64229;PMS5003;50547;49.498;0.092;2023-07-02T13:38:37;7;7;
64229;PMS5003;50547;49.498;0.092;2023-07-02T13:41:06;7;7;
64229;PMS5003;50547;49.498;0.092;2023-07-02T13:43:36;7;7;
64229;PMS5003;50547;49.498;0.092;2023-07-02T13:46:05;8;8;
64229;PMS5003;50547;49.498;0.092;2023-07-02T13:48:34;7;7;
64229;PMS5003;50547;49.498;0.092;2023-07-02T13:51:04;7;7;
64229;PMS5003;50547;49.498;0.092;2023-07-02T13:53:33;7;7;
64229;PMS5003;50547;49.498;0.092;2023-07-02T13:56:02;7;7;
64229;PMS5003;50547;49.498;0.092;2023-07-02T14:01:13;7;7;
64229;PMS5003;50547;49.498;0.092;2023-07-02T14:03:42;8;8;
64229;PMS5003;50547;49.498;0.092;2023-07-02T14:06:12;7;7;
64229;PMS5003;50547;49.498;0.092;2023-07-02T14:08:41;7;7;
64229;PMS5003;50547;49.498;0.092;2023-07-02T14:11:10;7;7;
64229;PMS5003;50547;49.498;0.092;2023-07-02T14:13:40;8;8;
64229;PMS5003;50547;49.498;0.092;2023-07-02T14:16:09;8;8;
64229;PMS5003;50547;49.498;0.092;2023-07-02T14:18:38;7;7;
64229;PMS5003;50547;49.498;0.092;2023-07-02T14:21:07;8;8;
64229;PMS5003;50547;49.498;0.092;2023-07-02T14:23:36;7;7;
64229;PMS5003;50547;49.498;0.092;2023-07-02T14:26:05;8;8;
64229;PMS5003;50547;49.498;0.092;2023-07-02T14:28:35;7;7;
64229;PMS5003;50547;49.498;0.092;2023-07-02T14:31:04;7;7;
64229;PMS5003;50547;49.498;0.092;2023-07-02T14:33:40;8;8;
64229;PMS5003;50547;49.498;0.092;2023-07-02T14:36:09;8;8;
64229;PMS5003;50547;49.498;0.092;2023-07-02T14:38:38;8;8;
64229;PMS5003;50547;49.498;0.092;2023-07-02T14:41:08;8;8;
64229;PMS5003;50547;49.498;0.092;2023-07-02T14:43:37;7;7;
64229;PMS5003;50547;49.498;0.092;2023-07-02T14:46:07;9;9;
64229;PMS5003;50547;49.498;0.092;2023-07-02T14:48:36;9;9;
64229;PMS5003;50547;49.498;0.092;2023-07-02T14:51:05;8;8;
64229;PMS5003;50547;49.498;0.092;2023-07-02T14:53:34;9;9;
64229;PMS5003;50547;49.498;0.092;2023-07-02T14:56:04;8;8;
64229;PMS5003;50547;49.498;0.092;2023-07-02T14:58:33;8;8;
64229;PMS5003;50547;49.498;0.092;2023-07-02T15:01:03;8;8;
64229;PMS5003;50547;49.498;0.092;2023-07-02T15:03:33;8;8;
64229;PMS5003;50547;49.498;0.092;2023-07-02T15:06:06;8;8;
64229;PMS5003;50547;49.498;0.092;2023-07-02T15:08:36;8;8;
64229;PMS5003;50547;49.498;0.092;2023-07-02T15:11:06;8;8;
64229;PMS5003;50547;49.498;0.092;2023-07-02T15:13:36;8;8;
64229;PMS5003;50547;49.498;0.092;2023-07-02T15:16:05;8;8;
64229;PMS5003;50547;49.498;0.092;2023-07-02T15:18:35;8;8;
64229;PMS5003;50547;49.498;0.092;2023-07-02T15:21:04;10;10;
64229;PMS5003;50547;49.498;0.092;2023-07-02T15:23:34;8;8;
64229;PMS5003;50547;49.498;0.092;2023-07-02T15:26:04;8;8;
64229;PMS5003;50547;49.498;0.092;2023-07-02T15:28:35;7;7;
64229;PMS5003;50547;49.498;0.092;2023-07-02T15:31:05;10;10;
64229;PMS5003;50547;49.498;0.092;2023-07-02T15:33:37;8;8;
64229;PMS5003;50547;49.498;0.092;2023-07-02T15:36:07;8;8;
64229;PMS5003;50547;49.498;0.092;2023-07-02T15:38:36;9;9;
64229;PMS5003;50547;49.498;0.092;2023-07-02T15:41:07;8;8;
64229;PMS5003;50547;49.498;0.092;2023-07-02T15:43:38;8;8;
64229;PMS5003;50547;49.498;0.092;2023-07-02T15:46:09;10;10;
64229;PMS5003;50547;49.498;0.092;2023-07-02T15:48:41;8;8;
64229;PMS5003;50547;49.498;0.092;2023-07-02T15:51:10;8;8;
64229;PMS5003;50547;49.498;0.092;2023-07-02T15:53:40;8;8;
64229;PMS5003;50547;49.498;0.092;2023-07-02T15:56:10;9;9;
64229;PMS5003;50547;49.498;0.092;2023-07-02T15:58:39;9;9;
64229;PMS5003;50547;49.498;0.092;2023-07-02T16:01:09;10;10;
64229;PMS5003;50547;49.498;0.092;2023-07-02T16:03:40;8;8;
64229;PMS5003;50547;49.498;0.092;2023-07-02T16:06:10;8;8;
64229;PMS5003;50547;49.498;0.092;2023-07-02T16:08:40;10;10;
64229;PMS5003;50547;49.498;0.092;2023-07-02T16:11:10;10;10;
64229;PMS5003;50547;49.498;0.092;2023-07-02T16:13:41;9;9;
64229;PMS5003;50547;49.498;0.092;2023-07-02T16:16:11;10;10;
64229;PMS5003;50547;49.498;0.092;2023-07-02T16:18:41;9;9;
64229;PMS5003;50547;49.498;0.092;2023-07-02T16:21:10;9;9;
64229;PMS5003;50547;49.498;0.092;2023-07-02T16:23:39;10;10;
64229;PMS5003;50547;49.498;0.092;2023-07-02T16:26:09;8;8;
64229;PMS5003;50547;49.498;0.092;2023-07-02T16:28:38;8;8;
64229;PMS5003;50547;49.498;0.092;2023-07-02T16:31:08;10;10;
64229;PMS5003;50547;49.498;0.092;2023-07-02T16:33:37;8;8;
64229;PMS5003;50547;49.498;0.092;2023-07-02T16:36:07;8;8;
64229;PMS5003;50547;49.498;0.092;2023-07-02T16:38:38;10;10;
64229;PMS5003;50547;49.498;0.092;2023-07-02T16:41:07;10;10;
64229;PMS5003;50547;49.498;0.092;2023-07-02T16:43:36;9;9;
64229;PMS5003;50547;49.498;0.092;2023-07-02T16:46:06;10;10;